Time;durP1;ratioP1;P1;durP2;ratioP2;P2;SDS_P1;SDS_P2;PMS_P1;PMS_P2;Temp;Humidity;BMP_temperature;BMP_pressure;BME280_temperature;BME280_humidity;BME280_pressure;Samples;Min_cycle;Max_cycle;Signal;HPM_P1;HPM_P2
2023/07/08 00:00:15;;;;;;;8.87;6.23;;;23.00;87.90;;;;;;5014449;28;20220;-77
2023/07/08 00:02:46;;;;;;;8.67;7.77;;;22.90;88.10;;;;;;5010641;28;20340;-76
2023/07/08 00:05:15;;;;;;;9.53;7.80;;;22.80;89.40;;;;;;4996941;28;20201;-76
2023/07/08 00:07:43;;;;;;;8.10;7.20;;;22.70;90.90;;;;;;5014485;28;20671;-76
2023/07/08 00:10:13;;;;;;;7.80;7.00;;;22.50;91.00;;;;;;4996700;28;20208;-76
2023/07/08 00:12:40;;;;;;;11.80;9.27;;;22.30;91.40;;;;;;5012837;28;20590;-76
2023/07/08 00:15:08;;;;;;;9.53;8.40;;;22.10;91.70;;;;;;5012105;28;20200;-76
2023/07/08 00:17:36;;;;;;;8.30;5.97;;;22.00;92.90;;;;;;5013279;28;20200;-76
2023/07/08 00:20:14;;;;;;;8.30;7.20;;;21.80;93.10;;;;;;5013285;28;20616;-76
2023/07/08 00:22:41;;;;;;;8.13;6.10;;;21.60;93.30;;;;;;5012836;28;20266;-76
2023/07/08 00:25:09;;;;;;;8.33;5.80;;;21.60;91.80;;;;;;5013241;28;20203;-75
2023/07/08 00:27:35;;;;;;;9.63;6.73;;;21.80;91.70;;;;;;5013119;28;20616;-76
2023/07/08 00:30:02;;;;;;;10.20;7.43;;;21.90;91.30;;;;;;4995659;28;20231;-76
2023/07/08 00:32:30;;;;;;;9.23;6.10;;;22.00;90.90;;;;;;5011709;28;20640;-76
2023/07/08 00:34:58;;;;;;;8.57;6.37;;;22.00;91.80;;;;;;5011162;28;20201;-76
2023/07/08 00:37:30;;;;;;;7.37;5.43;;;21.90;92.50;;;;;;5011682;28;20726;-76
2023/07/08 00:39:57;;;;;;;8.80;5.53;;;21.80;93.10;;;;;;5011510;28;20204;-76
2023/07/08 00:42:25;;;;;;;6.83;5.43;;;21.50;92.90;;;;;;5011454;28;20700;-76
2023/07/08 00:44:52;;;;;;;8.43;5.90;;;21.50;93.20;;;;;;5008442;28;20201;-75
2023/07/08 00:47:20;;;;;;;8.07;7.10;;;21.30;93.30;;;;;;5011076;28;20192;-76
2023/07/08 00:49:50;;;;;;;8.37;7.17;;;21.30;93.10;;;;;;4995456;28;20204;-76
2023/07/08 00:52:24;;;;;;;8.27;6.13;;;21.30;92.50;;;;;;5012676;28;20596;-76
2023/07/08 00:54:53;;;;;;;8.43;6.27;;;21.30;91.90;;;;;;4990419;28;20236;-76
2023/07/08 00:57:24;;;;;;;8.33;5.70;;;21.40;91.80;;;;;;5003718;28;20247;-75
2023/07/08 00:59:56;;;;;;;7.37;5.67;;;21.40;91.80;;;;;;5012967;28;20667;-76
2023/07/08 01:02:26;;;;;;;7.77;5.63;;;21.40;92.60;;;;;;5012747;28;20208;-75
2023/07/08 01:05:01;;;;;;;7.43;5.50;;;21.30;93.20;;;;;;4995029;28;20649;-76
2023/07/08 01:07:29;;;;;;;7.63;5.63;;;21.20;93.60;;;;;;5011770;28;20208;-76
2023/07/08 01:09:59;;;;;;;8.83;6.43;;;21.10;93.80;;;;;;4995189;28;20216;-76
2023/07/08 01:12:31;;;;;;;9.33;6.10;;;21.00;94.40;;;;;;4975938;28;1061842;-76
2023/07/08 01:15:00;;;;;;;9.93;7.93;;;20.80;94.60;;;;;;5012629;28;20209;-76
2023/07/08 01:17:32;;;;;;;7.53;5.80;;;20.70;95.30;;;;;;5013468;28;20197;-76
2023/07/08 01:19:59;;;;;;;7.33;5.67;;;20.60;95.70;;;;;;5013902;28;20224;-76
2023/07/08 01:22:31;;;;;;;8.80;7.17;;;20.50;96.10;;;;;;5013859;28;20220;-76
2023/07/08 01:25:02;;;;;;;9.13;6.43;;;20.40;95.90;;;;;;5009491;28;20659;-76
2023/07/08 01:27:32;;;;;;;9.23;6.47;;;20.30;96.60;;;;;;5012992;28;20220;-77
2023/07/08 01:30:02;;;;;;;10.63;7.10;;;20.20;96.80;;;;;;5014217;28;20725;-76
2023/07/08 01:32:30;;;;;;;8.07;6.20;;;20.10;97.30;;;;;;5012305;28;20275;-76
2023/07/08 01:35:01;;;;;;;8.87;6.43;;;20.10;97.70;;;;;;5011740;28;20266;-75
2023/07/08 01:37:33;;;;;;;7.97;5.70;;;20.00;97.10;;;;;;4996362;28;20211;-76
2023/07/08 01:40:24;;;;;;;8.23;5.83;;;19.90;97.30;;;;;;5012615;28;20201;-76
2023/07/08 01:42:51;;;;;;;8.60;6.03;;;19.80;97.30;;;;;;5012174;28;20228;-77
2023/07/08 01:45:20;;;;;;;9.07;6.80;;;19.70;97.90;;;;;;5012003;28;20721;-76
2023/07/08 01:47:53;;;;;;;9.67;8.67;;;19.70;98.60;;;;;;4996119;28;20208;-76
2023/07/08 01:50:21;;;;;;;8.37;6.27;;;19.60;98.50;;;;;;5011926;28;20200;-76
2023/07/08 01:52:52;;;;;;;8.47;6.13;;;19.50;98.80;;;;;;5013254;28;20223;-76
2023/07/08 01:55:24;;;;;;;9.23;6.77;;;19.50;98.80;;;;;;4995215;28;20203;-76
2023/07/08 01:57:52;;;;;;;9.13;6.47;;;19.40;98.70;;;;;;4993079;28;20299;-75
2023/07/08 02:00:20;;;;;;;8.23;6.17;;;19.40;99.30;;;;;;5014086;28;20222;-76
2023/07/08 02:02:47;;;;;;;8.50;6.30;;;19.30;99.40;;;;;;5016964;28;20250;-76
2023/07/08 02:05:14;;;;;;;8.37;6.13;;;19.20;99.70;;;;;;5017505;28;20195;-76
2023/07/08 02:07:41;;;;;;;7.80;5.60;;;19.20;99.80;;;;;;5016239;28;20642;-76
2023/07/08 02:10:10;;;;;;;8.33;5.80;;;19.10;99.90;;;;;;5014531;28;20682;-76
2023/07/08 02:12:37;;;;;;;9.50;8.17;;;19.10;99.90;;;;;;5012279;28;20238;-76
2023/07/08 02:15:05;;;;;;;8.57;6.10;;;19.00;99.90;;;;;;5013372;28;20257;-75
2023/07/08 02:17:32;;;;;;;8.80;6.43;;;18.90;99.90;;;;;;5017163;28;20191;-76
2023/07/08 02:19:59;;;;;;;11.03;8.87;;;18.90;99.90;;;;;;4999711;28;20199;-76
2023/07/08 02:22:26;;;;;;;8.47;6.23;;;18.70;99.90;;;;;;5016471;28;20223;-75
2023/07/08 02:24:52;;;;;;;10.40;8.27;;;18.70;99.90;;;;;;5015438;28;20640;-76
2023/07/08 02:27:20;;;;;;;8.27;7.37;;;18.70;99.90;;;;;;5015475;28;20669;-75
2023/07/08 02:29:47;;;;;;;9.80;7.87;;;18.60;99.90;;;;;;5012643;28;20273;-76
2023/07/08 02:32:14;;;;;;;7.53;6.07;;;18.60;99.90;;;;;;5014838;28;20218;-76
2023/07/08 02:34:41;;;;;;;11.57;8.10;;;18.60;99.90;;;;;;5014970;28;20237;-76
2023/07/08 02:37:08;;;;;;;12.83;8.70;;;18.70;99.80;;;;;;4999369;28;20200;-76
2023/07/08 02:39:35;;;;;;;10.87;7.60;;;18.90;98.90;;;;;;5015719;28;20225;-76
2023/07/08 02:42:01;;;;;;;9.97;6.93;;;19.10;98.00;;;;;;5016153;28;20245;-76
2023/07/08 02:44:30;;;;;;;8.83;6.50;;;19.30;97.70;;;;;;5014419;28;20258;-75
2023/07/08 02:46:56;;;;;;;9.27;6.70;;;19.40;97.70;;;;;;5014703;28;20736;-76
2023/07/08 02:49:23;;;;;;;8.73;6.30;;;19.60;97.20;;;;;;5017335;28;20206;-78
2023/07/08 02:51:50;;;;;;;10.23;7.50;;;19.70;96.90;;;;;;5000644;28;20218;-79
2023/07/08 02:54:17;;;;;;;9.57;7.63;;;19.90;96.40;;;;;;5000352;28;20239;-79
2023/07/08 02:56:44;;;;;;;9.13;7.17;;;20.00;96.30;;;;;;4992793;28;20280;-78
2023/07/08 02:59:10;;;;;;;10.13;6.83;;;20.00;96.60;;;;;;5014767;28;20211;-78
2023/07/08 03:01:42;;;;;;;9.73;6.37;;;20.00;96.80;;;;;;5015669;28;20218;-78
2023/07/08 03:04:12;;;;;;;8.63;5.97;;;19.90;97.60;;;;;;5015096;28;20226;-77
2023/07/08 03:06:41;;;;;;;6.87;5.20;;;19.80;98.70;;;;;;5014563;28;20203;-77
2023/07/08 03:09:07;;;;;;;9.67;6.43;;;19.60;98.80;;;;;;5006988;28;20253;-77
2023/07/08 03:11:34;;;;;;;8.13;6.10;;;19.50;99.00;;;;;;5015576;28;20236;-78
2023/07/08 03:14:01;;;;;;;8.03;5.93;;;19.40;99.30;;;;;;5003420;28;20222;-79
2023/07/08 03:16:29;;;;;;;8.40;5.53;;;19.30;99.60;;;;;;5010649;28;20235;-78
2023/07/08 03:18:57;;;;;;;8.47;5.90;;;19.20;99.70;;;;;;4997177;28;20217;-78
2023/07/08 03:21:25;;;;;;;7.87;5.87;;;19.10;99.90;;;;;;5011792;28;20195;-78
2023/07/08 03:23:53;;;;;;;8.47;6.10;;;19.00;99.90;;;;;;5015014;28;20197;-78
2023/07/08 03:26:23;;;;;;;7.27;6.03;;;19.00;99.90;;;;;;5002481;28;20258;-78
2023/07/08 03:28:51;;;;;;;8.43;6.17;;;19.00;99.90;;;;;;5022097;28;20215;-78
2023/07/08 03:31:20;;;;;;;9.23;6.03;;;18.80;99.90;;;;;;4995854;28;20676;-78
2023/07/08 03:33:46;;;;;;;9.67;5.80;;;18.80;99.90;;;;;;5021037;28;20219;-78
2023/07/08 03:36:22;;;;;;;9.43;6.40;;;18.70;99.90;;;;;;5005587;28;20211;-77
2023/07/08 03:38:50;;;;;;;7.47;5.10;;;18.70;99.90;;;;;;5023068;28;20211;-78
2023/07/08 03:41:18;;;;;;;8.57;7.67;;;18.70;99.90;;;;;;5019665;28;20294;-77
2023/07/08 03:43:44;;;;;;;8.70;7.83;;;18.70;99.90;;;;;;5017975;28;20281;-78
2023/07/08 03:46:13;;;;;;;9.07;8.13;;;18.80;99.90;;;;;;5026027;28;20196;-77
2023/07/08 03:48:40;;;;;;;9.07;7.73;;;18.80;99.90;;;;;;5000686;28;20221;-79
2023/07/08 03:51:10;;;;;;;9.13;8.10;;;18.80;99.90;;;;;;4999716;28;20839;-76
2023/07/08 03:53:38;;;;;;;9.13;7.97;;;18.80;99.90;;;;;;5013733;28;20279;-75
2023/07/08 03:56:05;;;;;;;8.23;7.43;;;18.80;99.90;;;;;;4995874;28;20695;-75
2023/07/08 03:58:32;;;;;;;9.43;8.43;;;18.90;99.90;;;;;;5008166;28;20200;-75
2023/07/08 04:00:59;;;;;;;9.57;8.57;;;18.90;99.90;;;;;;4991652;28;20409;-75
2023/07/08 04:03:26;;;;;;;8.53;7.67;;;19.00;99.90;;;;;;4997542;28;20710;-75
2023/07/08 04:05:53;;;;;;;8.83;7.40;;;19.00;99.90;;;;;;5000021;28;20217;-75
2023/07/08 04:08:20;;;;;;;8.70;5.80;;;19.10;99.90;;;;;;5019514;28;20257;-76
2023/07/08 04:10:48;;;;;;;7.73;5.57;;;19.20;99.90;;;;;;5001118;28;20206;-75
2023/07/08 04:13:15;;;;;;;8.13;6.33;;;19.30;99.90;;;;;;5011601;28;20752;-75
2023/07/08 04:15:42;;;;;;;9.00;7.70;;;19.40;99.90;;;;;;4995278;28;20695;-75
2023/07/08 04:18:08;;;;;;;9.30;6.00;;;19.50;99.90;;;;;;5004060;28;20227;-75
2023/07/08 04:20:35;;;;;;;9.03;8.07;;;19.70;99.90;;;;;;5013001;28;20199;-75
2023/07/08 04:23:02;;;;;;;8.73;7.73;;;19.80;99.90;;;;;;5012420;28;20235;-78
2023/07/08 04:25:29;;;;;;;7.60;6.80;;;19.90;99.90;;;;;;5016343;28;20247;-77
2023/07/08 04:27:57;;;;;;;7.80;6.43;;;20.00;99.90;;;;;;4996924;28;20331;-75
2023/07/08 04:30:26;;;;;;;8.30;7.07;;;20.10;99.90;;;;;;5012535;28;20259;-75
2023/07/08 04:32:52;;;;;;;8.87;6.40;;;20.20;99.90;;;;;;5011170;28;20784;-76
2023/07/08 04:35:19;;;;;;;8.43;7.53;;;20.30;99.90;;;;;;5012621;28;20258;-76
2023/07/08 04:37:47;;;;;;;9.03;8.10;;;20.20;99.90;;;;;;4998754;28;20196;-75
2023/07/08 04:40:18;;;;;;;9.40;8.17;;;20.10;99.90;;;;;;5012540;28;20224;-76
2023/07/08 04:42:47;;;;;;;9.03;8.10;;;20.10;99.90;;;;;;5012263;28;20228;-75
2023/07/08 04:45:16;;;;;;;8.47;5.60;;;20.10;99.90;;;;;;5012255;28;20200;-76
2023/07/08 04:47:46;;;;;;;8.43;6.00;;;20.30;99.90;;;;;;5007860;28;20200;-76
2023/07/08 04:50:13;;;;;;;9.87;8.43;;;20.40;99.90;;;;;;5009776;28;20200;-76
2023/07/08 04:52:40;;;;;;;10.23;7.37;;;20.60;99.90;;;;;;5014537;28;20263;-79
2023/07/08 04:55:10;;;;;;;9.47;8.37;;;21.20;99.90;;;;;;5016599;28;20220;-78
2023/07/08 04:57:37;;;;;;;8.33;6.33;;;22.50;99.90;;;;;;5007290;28;20256;-78
2023/07/08 05:00:07;;;;;;;8.37;7.30;;;23.20;99.90;;;;;;5016101;28;20259;-77
2023/07/08 05:02:35;;;;;;;9.37;8.13;;;23.80;99.90;;;;;;5017668;28;20220;-78
2023/07/08 05:05:03;;;;;;;9.70;7.07;;;23.80;99.90;;;;;;5004015;28;20213;-77
2023/07/08 05:07:30;;;;;;;10.50;8.60;;;23.50;99.60;;;;;;5014664;28;20204;-77
2023/07/08 05:09:56;;;;;;;9.17;8.17;;;23.10;99.60;;;;;;5018890;28;20227;-78
2023/07/08 05:12:23;;;;;;;8.53;6.93;;;22.60;99.90;;;;;;5014696;28;20662;-77
2023/07/08 05:14:50;;;;;;;9.67;7.63;;;22.10;99.90;;;;;;4998932;28;20232;-78
2023/07/08 05:17:17;;;;;;;9.43;7.60;;;21.80;99.90;;;;;;5014560;28;20205;-77
2023/07/08 05:19:45;;;;;;;9.10;6.63;;;21.60;99.90;;;;;;5012169;28;20217;-80
2023/07/08 05:22:12;;;;;;;10.90;8.43;;;21.50;99.90;;;;;;5015494;28;20232;-77
2023/07/08 05:24:39;;;;;;;8.07;6.40;;;21.40;99.90;;;;;;5015285;28;20201;-77
2023/07/08 05:27:06;;;;;;;10.33;6.77;;;21.50;99.90;;;;;;5015306;28;20262;-78
2023/07/08 05:29:33;;;;;;;10.10;6.00;;;21.60;99.90;;;;;;5000097;28;20201;-77
2023/07/08 05:31:59;;;;;;;9.43;8.07;;;21.80;99.90;;;;;;5017611;28;20600;-78
2023/07/08 05:34:26;;;;;;;11.63;8.83;;;22.00;99.90;;;;;;5016019;28;20224;-78
2023/07/08 05:36:54;;;;;;;8.93;6.13;;;22.30;99.90;;;;;;5010140;28;20189;-78
2023/07/08 05:39:21;;;;;;;9.23;6.70;;;22.50;99.90;;;;;;5013525;28;20263;-78
2023/07/08 05:41:48;;;;;;;8.47;6.70;;;22.50;99.90;;;;;;5016259;28;20220;-78
2023/07/08 05:44:15;;;;;;;8.80;6.57;;;22.60;99.90;;;;;;5017411;28;20587;-78
2023/07/08 05:46:41;;;;;;;10.00;7.73;;;22.50;99.90;;;;;;5014024;28;20200;-80
2023/07/08 05:49:08;;;;;;;9.23;8.20;;;22.50;99.90;;;;;;5000894;28;20252;-78
2023/07/08 05:51:37;;;;;;;9.47;8.47;;;22.40;99.90;;;;;;4997636;28;20597;-78
2023/07/08 05:54:05;;;;;;;8.57;6.50;;;22.30;99.90;;;;;;5013787;28;20236;-78
2023/07/08 05:56:31;;;;;;;8.83;7.40;;;22.30;99.90;;;;;;5015535;28;22292;-79
2023/07/08 05:58:58;;;;;;;8.33;6.23;;;22.10;99.90;;;;;;4997689;28;20215;-79
2023/07/08 06:01:25;;;;;;;8.33;6.20;;;22.10;99.90;;;;;;5014302;28;20238;-79
2023/07/08 06:03:52;;;;;;;7.83;6.07;;;22.00;99.90;;;;;;5014934;28;20664;-79
2023/07/08 06:06:19;;;;;;;9.60;6.53;;;22.00;99.90;;;;;;5011065;28;20232;-79
2023/07/08 06:08:46;;;;;;;9.33;6.13;;;22.00;99.90;;;;;;5012773;28;20232;-80
2023/07/08 06:11:14;;;;;;;9.70;6.93;;;21.90;99.90;;;;;;5022021;28;20255;-75
2023/07/08 06:13:41;;;;;;;8.97;6.50;;;21.90;99.90;;;;;;5011762;28;20220;-75
2023/07/08 06:16:07;;;;;;;7.87;6.17;;;21.90;99.90;;;;;;5010779;28;20212;-75
2023/07/08 06:18:34;;;;;;;8.17;7.00;;;21.90;99.90;;;;;;5010897;28;20737;-75
2023/07/08 06:21:01;;;;;;;7.40;5.70;;;21.90;99.90;;;;;;5006266;28;20694;-75
2023/07/08 06:23:28;;;;;;;7.53;5.97;;;21.90;99.90;;;;;;5009856;28;20248;-75
2023/07/08 06:25:56;;;;;;;8.40;6.20;;;22.00;99.90;;;;;;5011238;28;20209;-75
2023/07/08 06:28:24;;;;;;;9.30;6.27;;;22.00;99.90;;;;;;5007804;28;20274;-75
2023/07/08 06:30:51;;;;;;;8.00;5.90;;;22.00;99.90;;;;;;5011172;28;20340;-75
2023/07/08 06:33:17;;;;;;;8.37;6.43;;;22.10;99.90;;;;;;5010752;28;20239;-75
2023/07/08 06:35:45;;;;;;;8.20;6.63;;;22.10;99.90;;;;;;5013531;28;20212;-78
2023/07/08 06:38:12;;;;;;;7.83;6.10;;;22.20;99.90;;;;;;5012207;28;20271;-77
2023/07/08 06:40:41;;;;;;;6.83;5.63;;;22.20;99.90;;;;;;4994410;28;20201;-79
2023/07/08 06:43:15;;;;;;;8.40;6.70;;;22.20;99.90;;;;;;5010440;28;20208;-78
2023/07/08 06:45:52;;;;;;;9.80;7.50;;;22.20;99.90;;;;;;4996558;28;20287;-76
2023/07/08 06:48:19;;;;;;;9.33;8.30;;;22.20;99.90;;;;;;5015465;28;20254;-76
2023/07/08 06:50:50;;;;;;;9.32;7.10;;;22.30;99.90;;;;;;5015329;28;20435;-76
2023/07/08 06:53:17;;;;;;;7.47;6.40;;;22.30;99.90;;;;;;5012096;28;20447;-76
2023/07/08 06:55:45;;;;;;;9.23;6.97;;;22.40;99.90;;;;;;5030197;28;20236;-76
2023/07/08 06:58:12;;;;;;;11.83;10.27;;;22.50;99.90;;;;;;4993626;28;20200;-77
2023/07/08 07:00:42;;;;;;;11.53;9.93;;;22.50;99.90;;;;;;5015377;28;20220;-76
2023/07/08 07:03:10;;;;;;;11.45;10.07;;;22.60;99.90;;;;;;5015989;28;20442;-78
2023/07/08 07:05:37;;;;;;;11.27;10.07;;;22.90;99.90;;;;;;5018479;28;20216;-79
2023/07/08 07:08:06;;;;;;;9.00;6.90;;;23.00;99.90;;;;;;5010982;28;20251;-75
2023/07/08 07:10:33;;;;;;;8.93;6.80;;;23.10;99.90;;;;;;5002180;28;20205;-75
2023/07/08 07:13:00;;;;;;;8.00;6.03;;;23.40;99.90;;;;;;5013344;28;20282;-74
2023/07/08 07:15:27;;;;;;;8.63;6.77;;;23.80;99.90;;;;;;5013509;28;20671;-79
2023/07/08 07:17:54;;;;;;;8.80;7.60;;;24.40;99.90;;;;;;5017962;28;20200;-77
2023/07/08 07:20:22;;;;;;;7.67;5.87;;;24.70;99.90;;;;;;5000262;28;20211;-75
2023/07/08 07:22:49;;;;;;;8.17;5.80;;;25.00;99.90;;;;;;5013423;28;20235;-77
2023/07/08 07:25:16;;;;;;;8.33;7.30;;;25.10;99.90;;;;;;5013275;28;20189;-75
2023/07/08 07:27:43;;;;;;;7.53;5.40;;;25.10;99.90;;;;;;5010723;28;20620;-78
2023/07/08 07:30:14;;;;;;;8.43;7.50;;;25.20;99.90;;;;;;5015135;28;20280;-75
2023/07/08 07:32:41;;;;;;;7.23;4.93;;;25.20;99.90;;;;;;5013089;28;20223;-75
2023/07/08 07:35:12;;;;;;;7.53;6.77;;;25.40;99.90;;;;;;5013362;28;20208;-74
2023/07/08 07:37:41;;;;;;;7.73;6.93;;;25.50;99.90;;;;;;5013207;28;20314;-75
2023/07/08 07:40:12;;;;;;;9.13;8.23;;;25.60;99.90;;;;;;5016358;28;20264;-75
2023/07/08 07:42:39;;;;;;;8.20;6.90;;;25.50;98.90;;;;;;5013005;28;20224;-75
2023/07/08 07:45:07;;;;;;;8.10;5.80;;;25.40;99.90;;;;;;4995411;28;20219;-75
2023/07/08 07:47:34;;;;;;;11.10;7.50;;;25.50;99.90;;;;;;5014643;28;20238;-75
2023/07/08 07:50:01;;;;;;;7.30;6.50;;;25.40;99.90;;;;;;5013308;28;20267;-74
2023/07/08 07:52:28;;;;;;;7.87;6.30;;;25.30;99.90;;;;;;5013606;28;20243;-75
2023/07/08 07:54:56;;;;;;;7.93;6.27;;;25.20;99.90;;;;;;5011671;28;20604;-74
2023/07/08 07:57:23;;;;;;;9.40;8.47;;;25.10;99.90;;;;;;5011352;28;20196;-75
2023/07/08 07:59:51;;;;;;;7.63;6.80;;;25.00;99.90;;;;;;5011707;28;20212;-75
2023/07/08 08:02:18;;;;;;;8.00;6.70;;;24.90;99.90;;;;;;5012157;28;20278;-75
2023/07/08 08:04:46;;;;;;;6.80;5.90;;;24.90;99.90;;;;;;5012985;28;20239;-75
2023/07/08 08:07:13;;;;;;;9.07;6.50;;;25.00;99.90;;;;;;5010337;28;20235;-75
2023/07/08 08:09:40;;;;;;;9.13;8.03;;;25.10;99.90;;;;;;5013141;28;20745;-78
2023/07/08 08:12:10;;;;;;;8.87;7.13;;;25.20;99.90;;;;;;4995834;28;20722;-76
2023/07/08 08:14:37;;;;;;;7.43;6.60;;;25.40;99.90;;;;;;5009792;28;20208;-76
2023/07/08 08:17:04;;;;;;;8.90;8.00;;;25.40;99.90;;;;;;5014914;28;20193;-76
2023/07/08 08:19:32;;;;;;;9.50;8.60;;;25.40;99.90;;;;;;5011622;28;20200;-76
2023/07/08 08:22:01;;;;;;;10.40;7.67;;;25.40;99.90;;;;;;5012751;28;20683;-77
2023/07/08 08:24:28;;;;;;;10.43;8.30;;;25.40;99.90;;;;;;5013210;28;20603;-77
2023/07/08 08:26:55;;;;;;;9.80;8.73;;;25.20;99.90;;;;;;5014834;28;20555;-76
2023/07/08 08:29:23;;;;;;;8.67;7.63;;;24.90;99.90;;;;;;5011979;28;20235;-77
2023/07/08 08:31:51;;;;;;;11.03;7.73;;;24.80;99.90;;;;;;5011130;28;20216;-77
2023/07/08 08:34:18;;;;;;;9.73;7.40;;;24.60;99.90;;;;;;5014716;28;20207;-78
2023/07/08 08:36:44;;;;;;;10.57;6.83;;;24.60;99.90;;;;;;5029639;28;20204;-77
2023/07/08 08:39:11;;;;;;;8.87;7.07;;;24.70;99.90;;;;;;4997636;28;20219;-78
2023/07/08 08:41:41;;;;;;;8.67;6.77;;;24.70;99.90;;;;;;4997383;28;20272;-77
2023/07/08 08:44:15;;;;;;;8.00;6.07;;;24.70;99.90;;;;;;5014932;28;20184;-77
2023/07/08 08:46:50;;;;;;;8.73;6.33;;;24.90;99.90;;;;;;5014852;28;20205;-79
2023/07/08 08:49:25;;;;;;;10.80;6.93;;;25.10;99.90;;;;;;5014406;28;20203;-77
2023/07/08 08:51:52;;;;;;;8.70;6.60;;;25.10;99.90;;;;;;5014926;28;20220;-77
2023/07/08 08:54:19;;;;;;;7.38;6.60;;;25.00;99.90;;;;;;5010414;28;20472;-77
2023/07/08 08:56:53;;;;;;;7.37;6.07;;;25.10;99.90;;;;;;5014845;28;20274;-76
2023/07/08 08:59:28;;;;;;;7.93;6.43;;;25.10;99.90;;;;;;4997299;28;20208;-78
2023/07/08 09:01:57;;;;;;;8.70;6.13;;;25.30;99.90;;;;;;5013231;28;20653;-77
2023/07/08 09:04:28;;;;;;;8.03;5.47;;;25.30;99.90;;;;;;5014998;28;20216;-77
2023/07/08 09:07:05;;;;;;;8.00;7.30;;;25.30;99.90;;;;;;5013614;28;20208;-76
2023/07/08 09:09:39;;;;;;;8.13;7.32;;;25.30;99.90;;;;;;5012802;28;21130;-79
2023/07/08 09:12:14;;;;;;;7.23;5.80;;;25.30;99.90;;;;;;4995064;28;20224;-81
2023/07/08 09:14:41;;;;;;;8.03;5.10;;;25.30;99.90;;;;;;5014107;28;20215;-77
2023/07/08 09:17:21;;;;;;;6.90;5.10;;;25.20;99.90;;;;;;5014078;28;20251;-77
2023/07/08 09:19:53;;;;;;;6.43;5.10;;;25.10;99.90;;;;;;5014937;28;20885;-76
2023/07/08 09:22:24;;;;;;;6.82;4.80;;;25.10;99.80;;;;;;5010031;28;20951;-77
2023/07/08 09:24:55;;;;;;;6.47;5.03;;;25.00;99.90;;;;;;5007485;28;20683;-76
2023/07/08 09:27:21;;;;;;;8.90;5.60;;;25.10;99.90;;;;;;5003087;28;20204;-78
2023/07/08 09:29:49;;;;;;;6.43;5.30;;;25.10;99.90;;;;;;5017838;28;20208;-77
2023/07/08 09:32:20;;;;;;;6.70;4.57;;;25.20;99.90;;;;;;5015847;28;20212;-78
2023/07/08 09:34:51;;;;;;;6.13;4.47;;;25.20;99.90;;;;;;5018331;28;20247;-80
2023/07/08 09:37:24;;;;;;;7.63;6.50;;;25.30;99.90;;;;;;5015387;28;20717;-79
2023/07/08 09:39:53;;;;;;;6.53;4.93;;;25.40;99.90;;;;;;5007600;28;20267;-77
2023/07/08 09:42:21;;;;;;;7.60;4.67;;;25.50;99.90;;;;;;5016304;28;20240;-79
2023/07/08 09:44:48;;;;;;;7.80;5.10;;;25.50;99.60;;;;;;5016152;28;20242;-79
2023/07/08 09:47:24;;;;;;;7.13;5.23;;;25.50;99.60;;;;;;5019456;28;20223;-79
2023/07/08 09:49:53;;;;;;;7.73;5.57;;;25.50;99.90;;;;;;4995604;28;20196;-81
2023/07/08 09:52:23;;;;;;;8.90;6.10;;;25.70;99.90;;;;;;5013522;28;20583;-78
2023/07/08 09:54:50;;;;;;;6.07;5.10;;;25.80;99.90;;;;;;5005597;28;20710;-79
2023/07/08 09:57:29;;;;;;;8.70;6.10;;;26.00;99.90;;;;;;4997566;28;20196;-79
2023/07/08 10:00:02;;;;;;;7.40;6.00;;;26.10;99.40;;;;;;5015750;28;20330;-79
2023/07/08 10:02:41;;;;;;;7.43;5.30;;;26.30;99.80;;;;;;5013952;28;20706;-77
2023/07/08 10:05:15;;;;;;;8.37;6.57;;;26.60;99.90;;;;;;5014974;28;20647;-79
2023/07/08 10:07:41;;;;;;;7.70;5.77;;;26.90;98.40;;;;;;5013505;28;20196;-79
2023/07/08 10:10:14;;;;;;;7.57;6.10;;;27.40;99.30;;;;;;5013686;28;20231;-80
2023/07/08 10:12:46;;;;;;;8.13;7.33;;;28.10;98.30;;;;;;5012185;28;20323;-77
2023/07/08 10:15:21;;;;;;;7.83;7.03;;;28.20;97.60;;;;;;5013804;28;20216;-79
2023/07/08 10:17:49;;;;;;;9.10;7.20;;;28.20;98.10;;;;;;5014765;28;20200;-78
2023/07/08 10:20:16;;;;;;;7.20;6.50;;;28.00;98.00;;;;;;4997506;28;20204;-78
2023/07/08 10:22:54;;;;;;;7.57;6.87;;;28.10;97.20;;;;;;5000666;28;20224;-78
2023/07/08 10:25:30;;;;;;;6.97;6.23;;;28.00;97.40;;;;;;5019509;28;20189;-78
2023/07/08 10:28:02;;;;;;;7.23;6.57;;;28.30;98.50;;;;;;5017639;28;20208;-78
2023/07/08 10:30:34;;;;;;;7.60;6.90;;;28.50;97.60;;;;;;5019660;28;20197;-79
2023/07/08 10:33:20;;;;;;;6.60;5.90;;;28.40;97.30;;;;;;5019227;28;20274;-78
2023/07/08 10:35:55;;;;;;;7.43;6.60;;;28.50;97.00;;;;;;5018460;28;20231;-79
2023/07/08 10:38:36;;;;;;;6.53;5.90;;;28.20;96.30;;;;;;5016480;28;20211;-79
2023/07/08 10:41:13;;;;;;;5.80;5.10;;;28.40;96.00;;;;;;5010907;28;20243;-78
2023/07/08 10:43:52;;;;;;;7.03;6.33;;;28.70;96.40;;;;;;5014929;28;20224;-79
2023/07/08 10:46:33;;;;;;;6.67;5.90;;;29.00;96.70;;;;;;5000437;28;20255;-79
2023/07/08 10:49:18;;;;;;;7.07;6.43;;;29.10;96.80;;;;;;5018408;28;20667;-78
2023/07/08 10:51:56;;;;;;;7.57;6.87;;;29.50;95.90;;;;;;4998535;28;20224;-78
2023/07/08 10:54:52;;;;;;;8.83;6.67;;;29.20;95.50;;;;;;5013713;28;20242;-80
2023/07/08 10:57:38;;;;;;;6.77;6.07;;;29.10;96.80;;;;;;5011338;28;20246;-78
2023/07/08 11:00:20;;;;;;;6.70;6.00;;;29.50;96.30;;;;;;5000447;28;20251;-81
2023/07/08 11:03:29;;;;;;;6.40;5.80;;;29.50;95.10;;;;;;4997395;28;20228;-78
2023/07/08 11:06:01;;;;;;;5.70;5.20;;;29.70;93.90;;;;;;4998407;28;20205;-78
2023/07/08 11:08:32;;;;;;;6.27;5.67;;;29.90;93.70;;;;;;5012042;28;20201;-77
2023/07/08 11:11:06;;;;;;;6.17;5.67;;;29.90;93.00;;;;;;5015381;28;20277;-78
2023/07/08 11:13:37;;;;;;;5.43;5.03;;;30.00;93.70;;;;;;5016747;28;20224;-79
2023/07/08 11:16:11;;;;;;;5.80;5.10;;;30.20;94.10;;;;;;5016515;28;20209;-78
2023/07/08 11:18:43;;;;;;;6.70;5.70;;;30.10;92.30;;;;;;4997288;28;20208;-76
2023/07/08 11:21:17;;;;;;;6.43;5.73;;;30.00;93.00;;;;;;5019103;28;20197;-76
2023/07/08 11:23:48;;;;;;;5.87;5.33;;;29.90;92.30;;;;;;5014005;28;20671;-76
2023/07/08 11:26:22;;;;;;;5.23;4.53;;;29.80;92.00;;;;;;5012184;28;20205;-76
2023/07/08 11:28:52;;;;;;;4.90;4.50;;;29.60;92.70;;;;;;4995403;28;20242;-75
2023/07/08 11:31:19;;;;;;;6.60;4.67;;;29.80;92.60;;;;;;5013277;28;20254;-76
2023/07/08 11:33:47;;;;;;;5.53;5.03;;;29.80;93.00;;;;;;5013784;28;20204;-76
2023/07/08 11:36:17;;;;;;;4.77;4.40;;;30.10;93.20;;;;;;4995952;28;20216;-76
2023/07/08 11:38:49;;;;;;;4.87;4.47;;;30.20;92.70;;;;;;4995851;28;20247;-75
2023/07/08 11:41:20;;;;;;;5.10;4.60;;;30.40;92.50;;;;;;5013468;28;20197;-75
2023/07/08 11:43:49;;;;;;;4.67;4.27;;;30.20;92.10;;;;;;5013577;28;20227;-76
2023/07/08 11:46:20;;;;;;;4.77;4.37;;;30.30;92.00;;;;;;5013359;28;20216;-76
2023/07/08 11:48:49;;;;;;;4.77;4.37;;;30.20;92.40;;;;;;4998999;28;20216;-76
2023/07/08 11:51:21;;;;;;;4.63;4.27;;;30.30;92.40;;;;;;5012691;28;20275;-76
2023/07/08 11:53:50;;;;;;;5.33;4.93;;;30.50;92.30;;;;;;5013237;28;20201;-76
2023/07/08 11:56:23;;;;;;;5.70;5.30;;;30.50;91.80;;;;;;4995724;28;20227;-76
2023/07/08 11:59:00;;;;;;;6.33;5.73;;;30.60;92.10;;;;;;5011911;28;20263;-75
2023/07/08 12:01:29;;;;;;;5.90;5.40;;;30.50;91.20;;;;;;5013025;28;20211;-76
2023/07/08 12:04:01;;;;;;;5.90;5.40;;;30.30;91.60;;;;;;5011821;28;20676;-76
2023/07/08 12:06:48;;;;;;;5.77;5.33;;;30.10;91.70;;;;;;5013357;28;20199;-76
2023/07/08 12:09:22;;;;;;;6.40;5.60;;;30.20;91.60;;;;;;5011704;28;20214;-76
2023/07/08 12:11:53;;;;;;;6.17;5.57;;;30.10;91.50;;;;;;5013345;28;20224;-76
2023/07/08 12:14:20;;;;;;;6.03;5.53;;;30.20;91.60;;;;;;5012997;28;20667;-76
2023/07/08 12:16:47;;;;;;;5.27;4.83;;;30.10;91.30;;;;;;5012722;28;20766;-76
2023/07/08 12:19:18;;;;;;;5.20;4.70;;;30.00;90.90;;;;;;5012500;28;20894;-75
2023/07/08 12:21:46;;;;;;;4.87;4.20;;;29.90;92.10;;;;;;5012884;28;20217;-75
2023/07/08 12:24:14;;;;;;;5.23;4.50;;;29.90;91.60;;;;;;5013009;28;20204;-76
2023/07/08 12:26:42;;;;;;;4.67;4.27;;;29.90;92.20;;;;;;5012439;28;20197;-76
2023/07/08 12:29:12;;;;;;;4.73;4.20;;;29.90;91.50;;;;;;5012774;28;20189;-76
2023/07/08 12:31:39;;;;;;;4.80;4.40;;;29.90;91.80;;;;;;5013316;28;20224;-78
2023/07/08 12:34:13;;;;;;;4.93;2.80;;;29.80;91.70;;;;;;5002070;28;20204;-78
2023/07/08 12:36:40;;;;;;;3.60;2.80;;;29.80;90.90;;;;;;5010533;28;20214;-75
2023/07/08 12:39:14;;;;;;;4.20;2.70;;;29.80;91.30;;;;;;5007813;28;20232;-74
2023/07/08 12:41:42;;;;;;;3.30;2.60;;;29.80;91.20;;;;;;5009729;28;20497;-75
2023/07/08 12:44:18;;;;;;;3.43;2.80;;;30.00;91.20;;;;;;5011877;28;20461;-76
2023/07/08 12:46:46;;;;;;;3.63;2.90;;;30.00;91.90;;;;;;5011084;28;20679;-75
2023/07/08 12:49:14;;;;;;;3.27;2.80;;;30.10;91.40;;;;;;5012117;28;20279;-75
2023/07/08 12:51:44;;;;;;;3.00;2.70;;;30.10;91.50;;;;;;5012057;28;20220;-74
2023/07/08 12:54:13;;;;;;;4.07;2.53;;;30.10;91.70;;;;;;5012375;28;20276;-75
2023/07/08 12:56:43;;;;;;;3.50;2.83;;;30.20;91.80;;;;;;5011872;28;20224;-75